sensor_id;sensor_type;location;lat;lon;timestamp;temperature;humidity
69393;SHT31;56582;44.624;20.378;2022-07-29T00:00:28;21.81;67.51
69393;SHT31;56582;44.624;20.378;2022-07-29T00:02:54;21.95;66.89
69393;SHT31;56582;44.624;20.378;2022-07-29T00:05:19;21.85;67.31
69393;SHT31;56582;44.624;20.378;2022-07-29T00:07:45;21.81;67.36
69393;SHT31;56582;44.624;20.378;2022-07-29T00:10:11;21.79;67.11
69393;SHT31;56582;44.624;20.378;2022-07-29T00:12:36;21.74;67.81
69393;SHT31;56582;44.624;20.378;2022-07-29T00:15:03;21.79;67.22
69393;SHT31;56582;44.624;20.378;2022-07-29T00:17:29;21.73;68.24
69393;SHT31;56582;44.624;20.378;2022-07-29T00:19:54;21.89;68.01
69393;SHT31;56582;44.624;20.378;2022-07-29T00:22:20;21.82;67.82
69393;SHT31;56582;44.624;20.378;2022-07-29T00:24:48;21.53;69.07
69393;SHT31;56582;44.624;20.378;2022-07-29T00:27:14;21.44;68.72
69393;SHT31;56582;44.624;20.378;2022-07-29T00:29:39;21.53;67.59
69393;SHT31;56582;44.624;20.378;2022-07-29T00:32:05;21.57;68.40
69393;SHT31;56582;44.624;20.378;2022-07-29T00:34:31;21.47;69.10
69393;SHT31;56582;44.624;20.378;2022-07-29T00:37:15;21.68;68.36
69393;SHT31;56582;44.624;20.378;2022-07-29T00:39:40;21.60;68.63
69393;SHT31;56582;44.624;20.378;2022-07-29T00:42:06;21.44;69.10
69393;SHT31;56582;44.624;20.378;2022-07-29T00:44:39;21.46;68.77
69393;SHT31;56582;44.624;20.378;2022-07-29T00:47:04;21.29;69.91
69393;SHT31;56582;44.624;20.378;2022-07-29T00:49:30;21.34;69.22
69393;SHT31;56582;44.624;20.378;2022-07-29T00:51:57;21.47;68.37
69393;SHT31;56582;44.624;20.378;2022-07-29T00:54:23;21.57;67.25
69393;SHT31;56582;44.624;20.378;2022-07-29T00:56:49;21.60;67.88
69393;SHT31;56582;44.624;20.378;2022-07-29T00:59:14;21.60;68.07
69393;SHT31;56582;44.624;20.378;2022-07-29T01:01:40;21.88;65.00
69393;SHT31;56582;44.624;20.378;2022-07-29T01:04:06;22.12;63.81
69393;SHT31;56582;44.624;20.378;2022-07-29T01:06:32;22.22;63.52
69393;SHT31;56582;44.624;20.378;2022-07-29T01:08:59;22.42;63.55
69393;SHT31;56582;44.624;20.378;2022-07-29T01:11:25;22.52;63.07
69393;SHT31;56582;44.624;20.378;2022-07-29T01:13:51;22.74;62.42
69393;SHT31;56582;44.624;20.378;2022-07-29T01:16:41;22.83;62.29
69393;SHT31;56582;44.624;20.378;2022-07-29T01:25:16;23.08;62.83
69393;SHT31;56582;44.624;20.378;2022-07-29T01:30:24;23.00;64.10
69393;SHT31;56582;44.624;20.378;2022-07-29T01:32:54;23.18;64.28
69393;SHT31;56582;44.624;20.378;2022-07-29T01:35:26;23.03;64.65
69393;SHT31;56582;44.624;20.378;2022-07-29T01:40:43;22.97;64.54
69393;SHT31;56582;44.624;20.378;2022-07-29T01:43:12;22.97;65.10
69393;SHT31;56582;44.624;20.378;2022-07-29T01:48:57;22.84;63.93
69393;SHT31;56582;44.624;20.378;2022-07-29T01:51:34;22.90;64.35
69393;SHT31;56582;44.624;20.378;2022-07-29T01:54:18;22.88;64.41
69393;SHT31;56582;44.624;20.378;2022-07-29T01:56:47;22.84;64.68
69393;SHT31;56582;44.624;20.378;2022-07-29T01:59:15;22.74;64.79
69393;SHT31;56582;44.624;20.378;2022-07-29T02:01:43;22.78;65.02
69393;SHT31;56582;44.624;20.378;2022-07-29T02:04:12;22.70;65.34
69393;SHT31;56582;44.624;20.378;2022-07-29T02:06:40;22.71;65.11
69393;SHT31;56582;44.624;20.378;2022-07-29T02:09:08;22.77;65.23
69393;SHT31;56582;44.624;20.378;2022-07-29T02:11:35;22.84;65.01
69393;SHT31;56582;44.624;20.378;2022-07-29T02:14:03;22.88;64.57
69393;SHT31;56582;44.624;20.378;2022-07-29T02:16:30;22.83;65.37
69393;SHT31;56582;44.624;20.378;2022-07-29T02:18:58;22.76;66.29
69393;SHT31;56582;44.624;20.378;2022-07-29T02:21:29;22.60;66.77
69393;SHT31;56582;44.624;20.378;2022-07-29T02:23:59;22.50;66.64
69393;SHT31;56582;44.624;20.378;2022-07-29T02:26:27;22.35;67.24
69393;SHT31;56582;44.624;20.378;2022-07-29T02:28:55;22.37;66.70
69393;SHT31;56582;44.624;20.378;2022-07-29T02:31:25;22.40;66.81
69393;SHT31;56582;44.624;20.378;2022-07-29T02:33:52;22.28;67.02
69393;SHT31;56582;44.624;20.378;2022-07-29T02:36:21;22.35;67.33
69393;SHT31;56582;44.624;20.378;2022-07-29T02:38:48;22.47;68.34
69393;SHT31;56582;44.624;20.378;2022-07-29T02:41:24;22.54;67.64
69393;SHT31;56582;44.624;20.378;2022-07-29T02:43:56;22.84;66.48
69393;SHT31;56582;44.624;20.378;2022-07-29T02:46:33;22.95;65.91
69393;SHT31;56582;44.624;20.378;2022-07-29T02:49:16;23.10;65.60
69393;SHT31;56582;44.624;20.378;2022-07-29T02:52:04;23.21;65.09
69393;SHT31;56582;44.624;20.378;2022-07-29T02:57:04;23.59;63.79
69393;SHT31;56582;44.624;20.378;2022-07-29T02:59:34;23.79;63.56
69393;SHT31;56582;44.624;20.378;2022-07-29T03:02:02;23.79;63.66
69393;SHT31;56582;44.624;20.378;2022-07-29T03:04:30;23.84;63.48
69393;SHT31;56582;44.624;20.378;2022-07-29T03:06:58;24.04;63.22
69393;SHT31;56582;44.624;20.378;2022-07-29T03:09:25;24.18;63.99
69393;SHT31;56582;44.624;20.378;2022-07-29T03:11:52;24.00;64.39
69393;SHT31;56582;44.624;20.378;2022-07-29T03:14:20;23.90;65.45
69393;SHT31;56582;44.624;20.378;2022-07-29T03:16:46;23.92;65.20
69393;SHT31;56582;44.624;20.378;2022-07-29T03:19:12;23.87;65.93
69393;SHT31;56582;44.624;20.378;2022-07-29T03:21:38;23.79;65.78
69393;SHT31;56582;44.624;20.378;2022-07-29T03:24:04;23.80;65.26
69393;SHT31;56582;44.624;20.378;2022-07-29T03:26:30;23.82;65.37
69393;SHT31;56582;44.624;20.378;2022-07-29T03:28:55;23.86;65.44
69393;SHT31;56582;44.624;20.378;2022-07-29T03:31:20;23.83;65.49
69393;SHT31;56582;44.624;20.378;2022-07-29T03:33:46;23.73;65.93
69393;SHT31;56582;44.624;20.378;2022-07-29T03:36:11;23.82;66.16
69393;SHT31;56582;44.624;20.378;2022-07-29T03:38:37;23.83;66.22
69393;SHT31;56582;44.624;20.378;2022-07-29T03:41:06;23.80;66.19
69393;SHT31;56582;44.624;20.378;2022-07-29T03:43:36;23.74;65.91
69393;SHT31;56582;44.624;20.378;2022-07-29T03:46:04;23.76;66.62
69393;SHT31;56582;44.624;20.378;2022-07-29T03:48:33;23.80;66.71
69393;SHT31;56582;44.624;20.378;2022-07-29T03:51:00;23.86;66.52
69393;SHT31;56582;44.624;20.378;2022-07-29T03:53:26;23.67;66.80
69393;SHT31;56582;44.624;20.378;2022-07-29T03:55:55;23.53;66.86
69393;SHT31;56582;44.624;20.378;2022-07-29T03:58:26;23.25;67.64
69393;SHT31;56582;44.624;20.378;2022-07-29T04:00:52;23.38;68.18
69393;SHT31;56582;44.624;20.378;2022-07-29T04:03:17;23.53;67.91
69393;SHT31;56582;44.624;20.378;2022-07-29T04:05:43;23.56;67.51
69393;SHT31;56582;44.624;20.378;2022-07-29T04:08:08;23.46;67.49
69393;SHT31;56582;44.624;20.378;2022-07-29T04:10:34;23.55;67.21
69393;SHT31;56582;44.624;20.378;2022-07-29T04:13:00;23.26;67.83
69393;SHT31;56582;44.624;20.378;2022-07-29T04:15:25;23.24;68.08
69393;SHT31;56582;44.624;20.378;2022-07-29T04:17:54;23.12;69.81
69393;SHT31;56582;44.624;20.378;2022-07-29T04:20:19;23.05;72.51
69393;SHT31;56582;44.624;20.378;2022-07-29T04:22:44;22.98;74.91
69393;SHT31;56582;44.624;20.378;2022-07-29T04:25:10;22.97;74.17
69393;SHT31;56582;44.624;20.378;2022-07-29T04:27:35;23.03;73.41
69393;SHT31;56582;44.624;20.378;2022-07-29T04:30:21;23.08;73.20
69393;SHT31;56582;44.624;20.378;2022-07-29T04:32:46;22.93;72.98
69393;SHT31;56582;44.624;20.378;2022-07-29T04:35:12;22.86;73.67
69393;SHT31;56582;44.624;20.378;2022-07-29T04:37:37;22.84;72.24
69393;SHT31;56582;44.624;20.378;2022-07-29T04:40:03;22.73;72.19
69393;SHT31;56582;44.624;20.378;2022-07-29T04:42:28;22.64;73.45
69393;SHT31;56582;44.624;20.378;2022-07-29T04:44:54;22.43;73.60
69393;SHT31;56582;44.624;20.378;2022-07-29T04:47:19;22.57;73.46
69393;SHT31;56582;44.624;20.378;2022-07-29T04:49:45;22.59;73.25
69393;SHT31;56582;44.624;20.378;2022-07-29T04:52:10;22.74;74.44
69393;SHT31;56582;44.624;20.378;2022-07-29T04:54:36;22.94;72.39
69393;SHT31;56582;44.624;20.378;2022-07-29T04:57:02;22.97;72.52
69393;SHT31;56582;44.624;20.378;2022-07-29T04:59:27;22.91;73.88
69393;SHT31;56582;44.624;20.378;2022-07-29T05:01:53;23.08;72.73
69393;SHT31;56582;44.624;20.378;2022-07-29T05:04:18;23.19;73.09
69393;SHT31;56582;44.624;20.378;2022-07-29T05:06:43;23.26;71.49
69393;SHT31;56582;44.624;20.378;2022-07-29T05:09:09;23.43;73.04
69393;SHT31;56582;44.624;20.378;2022-07-29T05:11:34;23.62;72.65
69393;SHT31;56582;44.624;20.378;2022-07-29T05:14:00;23.74;72.13
69393;SHT31;56582;44.624;20.378;2022-07-29T05:16:25;23.87;72.25
69393;SHT31;56582;44.624;20.378;2022-07-29T05:18:51;23.99;72.17
69393;SHT31;56582;44.624;20.378;2022-07-29T05:21:16;24.18;71.99
69393;SHT31;56582;44.624;20.378;2022-07-29T05:23:42;24.27;71.02
69393;SHT31;56582;44.624;20.378;2022-07-29T05:26:07;24.49;69.81
69393;SHT31;56582;44.624;20.378;2022-07-29T05:28:34;24.62;69.39
69393;SHT31;56582;44.624;20.378;2022-07-29T05:31:00;24.54;68.34
69393;SHT31;56582;44.624;20.378;2022-07-29T05:33:25;24.72;68.19
69393;SHT31;56582;44.624;20.378;2022-07-29T05:35:51;24.79;66.47
69393;SHT31;56582;44.624;20.378;2022-07-29T05:38:16;24.96;67.99
69393;SHT31;56582;44.624;20.378;2022-07-29T05:40:42;24.95;66.65
69393;SHT31;56582;44.624;20.378;2022-07-29T05:43:07;25.33;66.64
69393;SHT31;56582;44.624;20.378;2022-07-29T05:45:32;25.43;66.45
69393;SHT31;56582;44.624;20.378;2022-07-29T05:47:58;25.48;66.02
69393;SHT31;56582;44.624;20.378;2022-07-29T05:50:23;25.63;65.18
69393;SHT31;56582;44.624;20.378;2022-07-29T05:52:49;25.51;63.79
69393;SHT31;56582;44.624;20.378;2022-07-29T05:55:15;25.64;65.16
69393;SHT31;56582;44.624;20.378;2022-07-29T05:57:40;25.57;64.30
69393;SHT31;56582;44.624;20.378;2022-07-29T06:00:06;25.63;64.32
69393;SHT31;56582;44.624;20.378;2022-07-29T06:02:32;25.81;65.07
69393;SHT31;56582;44.624;20.378;2022-07-29T06:04:58;25.98;63.47
69393;SHT31;56582;44.624;20.378;2022-07-29T06:07:23;26.15;62.78
69393;SHT31;56582;44.624;20.378;2022-07-29T06:09:49;26.32;63.06
69393;SHT31;56582;44.624;20.378;2022-07-29T06:12:14;26.65;61.39
69393;SHT31;56582;44.624;20.378;2022-07-29T06:14:40;26.61;62.23
69393;SHT31;56582;44.624;20.378;2022-07-29T06:17:05;26.70;62.19
69393;SHT31;56582;44.624;20.378;2022-07-29T06:19:31;26.93;61.67
69393;SHT31;56582;44.624;20.378;2022-07-29T06:21:59;27.02;61.91
69393;SHT31;56582;44.624;20.378;2022-07-29T06:24:24;27.25;61.25
69393;SHT31;56582;44.624;20.378;2022-07-29T06:26:49;27.34;62.02
69393;SHT31;56582;44.624;20.378;2022-07-29T06:29:15;27.38;59.74
69393;SHT31;56582;44.624;20.378;2022-07-29T06:31:40;27.37;60.09
69393;SHT31;56582;44.624;20.378;2022-07-29T06:34:06;27.42;59.52
69393;SHT31;56582;44.624;20.378;2022-07-29T06:36:36;27.48;59.70
69393;SHT31;56582;44.624;20.378;2022-07-29T06:39:06;27.46;59.95
69393;SHT31;56582;44.624;20.378;2022-07-29T06:41:32;27.59;60.68
69393;SHT31;56582;44.624;20.378;2022-07-29T06:43:58;27.69;59.19
69393;SHT31;56582;44.624;20.378;2022-07-29T06:46:24;28.06;58.78
69393;SHT31;56582;44.624;20.378;2022-07-29T06:48:50;28.03;59.41
69393;SHT31;56582;44.624;20.378;2022-07-29T06:51:16;28.28;57.96
69393;SHT31;56582;44.624;20.378;2022-07-29T06:53:42;28.44;57.66
69393;SHT31;56582;44.624;20.378;2022-07-29T06:56:07;28.40;57.77
69393;SHT31;56582;44.624;20.378;2022-07-29T06:58:34;28.44;58.15
69393;SHT31;56582;44.624;20.378;2022-07-29T07:01:02;28.44;58.24
69393;SHT31;56582;44.624;20.378;2022-07-29T07:03:28;28.58;57.81
69393;SHT31;56582;44.624;20.378;2022-07-29T07:05:55;28.54;57.85
69393;SHT31;56582;44.624;20.378;2022-07-29T07:08:21;28.72;56.58
69393;SHT31;56582;44.624;20.378;2022-07-29T07:10:47;28.58;58.00
69393;SHT31;56582;44.624;20.378;2022-07-29T07:13:12;28.55;57.83
69393;SHT31;56582;44.624;20.378;2022-07-29T07:15:38;28.94;55.64
69393;SHT31;56582;44.624;20.378;2022-07-29T07:18:04;29.00;56.28
69393;SHT31;56582;44.624;20.378;2022-07-29T07:20:31;29.19;57.05
69393;SHT31;56582;44.624;20.378;2022-07-29T07:22:57;29.30;56.50
69393;SHT31;56582;44.624;20.378;2022-07-29T07:25:22;29.13;54.94
69393;SHT31;56582;44.624;20.378;2022-07-29T07:27:48;29.49;55.23
69393;SHT31;56582;44.624;20.378;2022-07-29T07:30:13;29.57;55.25
69393;SHT31;56582;44.624;20.378;2022-07-29T07:32:39;29.61;55.45
69393;SHT31;56582;44.624;20.378;2022-07-29T07:35:06;29.67;54.92
69393;SHT31;56582;44.624;20.378;2022-07-29T07:37:32;29.57;54.50
69393;SHT31;56582;44.624;20.378;2022-07-29T07:39:58;29.38;54.24
69393;SHT31;56582;44.624;20.378;2022-07-29T07:42:24;29.10;56.30
69393;SHT31;56582;44.624;20.378;2022-07-29T07:44:50;28.99;56.28
69393;SHT31;56582;44.624;20.378;2022-07-29T07:47:16;28.85;55.67
69393;SHT31;56582;44.624;20.378;2022-07-29T07:49:46;29.00;55.82
69393;SHT31;56582;44.624;20.378;2022-07-29T07:52:12;28.79;56.81
69393;SHT31;56582;44.624;20.378;2022-07-29T07:54:37;28.96;56.31
69393;SHT31;56582;44.624;20.378;2022-07-29T07:57:03;28.83;55.02
69393;SHT31;56582;44.624;20.378;2022-07-29T07:59:28;28.95;56.17
69393;SHT31;56582;44.624;20.378;2022-07-29T08:01:54;28.91;56.13
69393;SHT31;56582;44.624;20.378;2022-07-29T08:04:19;29.10;55.60
69393;SHT31;56582;44.624;20.378;2022-07-29T08:06:45;29.12;55.20
69393;SHT31;56582;44.624;20.378;2022-07-29T08:09:11;29.31;55.84
69393;SHT31;56582;44.624;20.378;2022-07-29T08:11:36;29.23;55.91
69393;SHT31;56582;44.624;20.378;2022-07-29T08:14:02;29.37;56.63
69393;SHT31;56582;44.624;20.378;2022-07-29T08:16:27;29.46;55.03
69393;SHT31;56582;44.624;20.378;2022-07-29T08:18:53;29.53;54.66
69393;SHT31;56582;44.624;20.378;2022-07-29T08:21:23;29.58;54.10
69393;SHT31;56582;44.624;20.378;2022-07-29T08:23:49;29.68;53.69
69393;SHT31;56582;44.624;20.378;2022-07-29T08:26:18;30.18;53.19
69393;SHT31;56582;44.624;20.378;2022-07-29T08:28:44;30.69;52.41
69393;SHT31;56582;44.624;20.378;2022-07-29T08:31:12;30.79;52.65
69393;SHT31;56582;44.624;20.378;2022-07-29T08:33:38;31.00;50.75
69393;SHT31;56582;44.624;20.378;2022-07-29T08:36:04;30.97;52.59
69393;SHT31;56582;44.624;20.378;2022-07-29T08:38:30;31.00;51.64
69393;SHT31;56582;44.624;20.378;2022-07-29T08:40:55;31.02;50.70
69393;SHT31;56582;44.624;20.378;2022-07-29T08:43:21;30.79;50.89
69393;SHT31;56582;44.624;20.378;2022-07-29T08:45:49;30.95;50.95
69393;SHT31;56582;44.624;20.378;2022-07-29T08:48:17;31.14;49.91
69393;SHT31;56582;44.624;20.378;2022-07-29T08:50:43;31.21;50.71
69393;SHT31;56582;44.624;20.378;2022-07-29T08:53:14;31.35;49.50
69393;SHT31;56582;44.624;20.378;2022-07-29T08:55:45;31.32;49.88
69393;SHT31;56582;44.624;20.378;2022-07-29T08:58:13;31.34;48.27
69393;SHT31;56582;44.624;20.378;2022-07-29T09:00:45;31.06;49.71
69393;SHT31;56582;44.624;20.378;2022-07-29T09:03:18;31.55;49.72
69393;SHT31;56582;44.624;20.378;2022-07-29T09:05:47;31.94;48.14
69393;SHT31;56582;44.624;20.378;2022-07-29T09:08:14;31.86;47.78
69393;SHT31;56582;44.624;20.378;2022-07-29T09:10:40;32.21;47.90
69393;SHT31;56582;44.624;20.378;2022-07-29T09:13:05;32.14;47.86
69393;SHT31;56582;44.624;20.378;2022-07-29T09:15:31;32.31;48.19
69393;SHT31;56582;44.624;20.378;2022-07-29T09:17:57;32.51;48.73
69393;SHT31;56582;44.624;20.378;2022-07-29T09:20:25;32.43;47.72
69393;SHT31;56582;44.624;20.378;2022-07-29T09:22:53;32.02;48.87
69393;SHT31;56582;44.624;20.378;2022-07-29T09:25:36;32.10;47.64
69393;SHT31;56582;44.624;20.378;2022-07-29T09:28:16;31.72;48.30
69393;SHT31;56582;44.624;20.378;2022-07-29T09:30:58;31.98;48.52
69393;SHT31;56582;44.624;20.378;2022-07-29T09:33:30;32.21;48.26
69393;SHT31;56582;44.624;20.378;2022-07-29T09:36:03;32.33;47.70
69393;SHT31;56582;44.624;20.378;2022-07-29T09:38:29;32.44;48.13
69393;SHT31;56582;44.624;20.378;2022-07-29T09:41:12;32.44;48.28
69393;SHT31;56582;44.624;20.378;2022-07-29T09:43:39;32.45;48.28
69393;SHT31;56582;44.624;20.378;2022-07-29T09:46:14;32.12;48.00
69393;SHT31;56582;44.624;20.378;2022-07-29T09:48:40;31.93;48.61
69393;SHT31;56582;44.624;20.378;2022-07-29T09:51:19;31.93;48.51
69393;SHT31;56582;44.624;20.378;2022-07-29T09:53:45;31.43;48.69
69393;SHT31;56582;44.624;20.378;2022-07-29T09:56:13;31.62;49.35
69393;SHT31;56582;44.624;20.378;2022-07-29T09:58:39;31.17;50.23
69393;SHT31;56582;44.624;20.378;2022-07-29T10:01:05;31.29;49.63
69393;SHT31;56582;44.624;20.378;2022-07-29T10:03:31;30.90;49.01
69393;SHT31;56582;44.624;20.378;2022-07-29T10:06:06;30.66;49.86
69393;SHT31;56582;44.624;20.378;2022-07-29T10:08:32;30.46;50.00
69393;SHT31;56582;44.624;20.378;2022-07-29T10:11:14;30.76;50.21
69393;SHT31;56582;44.624;20.378;2022-07-29T10:13:43;30.91;49.87
69393;SHT31;56582;44.624;20.378;2022-07-29T10:16:09;30.73;49.88
69393;SHT31;56582;44.624;20.378;2022-07-29T10:18:35;31.01;49.75
69393;SHT31;56582;44.624;20.378;2022-07-29T10:21:03;31.63;49.38
69393;SHT31;56582;44.624;20.378;2022-07-29T10:23:29;31.96;47.71
69393;SHT31;56582;44.624;20.378;2022-07-29T10:25:56;31.62;48.27
69393;SHT31;56582;44.624;20.378;2022-07-29T10:28:21;31.34;48.80
69393;SHT31;56582;44.624;20.378;2022-07-29T10:30:49;31.69;47.82
69393;SHT31;56582;44.624;20.378;2022-07-29T10:36:26;31.35;47.40
69393;SHT31;56582;44.624;20.378;2022-07-29T10:39:19;30.79;48.66
69393;SHT31;56582;44.624;20.378;2022-07-29T10:42:11;30.73;50.19
69393;SHT31;56582;44.624;20.378;2022-07-29T10:44:40;31.07;49.81
69393;SHT31;56582;44.624;20.378;2022-07-29T10:47:07;30.97;49.36
69393;SHT31;56582;44.624;20.378;2022-07-29T10:49:36;30.55;49.32
69393;SHT31;56582;44.624;20.378;2022-07-29T10:52:07;30.61;50.06
69393;SHT31;56582;44.624;20.378;2022-07-29T10:54:43;30.79;49.98
69393;SHT31;56582;44.624;20.378;2022-07-29T11:05:10;30.71;48.68
69393;SHT31;56582;44.624;20.378;2022-07-29T11:07:38;30.70;49.01
69393;SHT31;56582;44.624;20.378;2022-07-29T11:15:16;30.43;49.79
69393;SHT31;56582;44.624;20.378;2022-07-29T11:23:23;30.44;50.13
69393;SHT31;56582;44.624;20.378;2022-07-29T11:29:04;30.57;49.81
69393;SHT31;56582;44.624;20.378;2022-07-29T11:31:40;30.43;50.28
69393;SHT31;56582;44.624;20.378;2022-07-29T11:34:24;30.49;49.35
69393;SHT31;56582;44.624;20.378;2022-07-29T11:39:35;30.56;49.16
69393;SHT31;56582;44.624;20.378;2022-07-29T11:47:22;30.84;50.07
69393;SHT31;56582;44.624;20.378;2022-07-29T11:49:50;30.98;51.55
69393;SHT31;56582;44.624;20.378;2022-07-29T11:52:17;31.11;49.98
69393;SHT31;56582;44.624;20.378;2022-07-29T11:54:43;31.42;50.78
69393;SHT31;56582;44.624;20.378;2022-07-29T11:57:09;31.63;48.31
69393;SHT31;56582;44.624;20.378;2022-07-29T11:59:43;31.53;48.71
69393;SHT31;56582;44.624;20.378;2022-07-29T12:02:09;31.25;48.53
69393;SHT31;56582;44.624;20.378;2022-07-29T12:04:52;31.28;48.80
69393;SHT31;56582;44.624;20.378;2022-07-29T12:07:18;31.76;47.79
69393;SHT31;56582;44.624;20.378;2022-07-29T12:09:51;32.12;48.50
69393;SHT31;56582;44.624;20.378;2022-07-29T12:12:17;32.35;47.05
69393;SHT31;56582;44.624;20.378;2022-07-29T12:14:42;32.38;45.70
69393;SHT31;56582;44.624;20.378;2022-07-29T12:17:32;32.33;47.63
69393;SHT31;56582;44.624;20.378;2022-07-29T12:20:00;32.67;47.44
69393;SHT31;56582;44.624;20.378;2022-07-29T12:22:34;32.94;44.93
69393;SHT31;56582;44.624;20.378;2022-07-29T12:25:04;33.33;45.25
69393;SHT31;56582;44.624;20.378;2022-07-29T12:27:31;33.32;44.93
69393;SHT31;56582;44.624;20.378;2022-07-29T12:29:58;33.01;44.45
69393;SHT31;56582;44.624;20.378;2022-07-29T12:32:39;32.61;45.66
69393;SHT31;56582;44.624;20.378;2022-07-29T12:35:11;33.05;43.61
69393;SHT31;56582;44.624;20.378;2022-07-29T12:37:39;33.26;46.29
69393;SHT31;56582;44.624;20.378;2022-07-29T12:40:07;32.92;44.81
69393;SHT31;56582;44.624;20.378;2022-07-29T12:42:34;32.45;44.77
69393;SHT31;56582;44.624;20.378;2022-07-29T12:45:01;32.67;44.93
69393;SHT31;56582;44.624;20.378;2022-07-29T12:47:27;32.54;44.76
69393;SHT31;56582;44.624;20.378;2022-07-29T12:50:13;32.60;44.80
69393;SHT31;56582;44.624;20.378;2022-07-29T12:52:44;32.19;45.29
69393;SHT31;56582;44.624;20.378;2022-07-29T12:55:10;32.37;45.33
69393;SHT31;56582;44.624;20.378;2022-07-29T12:57:46;32.57;45.32
69393;SHT31;56582;44.624;20.378;2022-07-29T13:00:13;32.51;45.17
69393;SHT31;56582;44.624;20.378;2022-07-29T13:02:40;32.44;45.41
69393;SHT31;56582;44.624;20.378;2022-07-29T13:05:07;32.30;45.10
69393;SHT31;56582;44.624;20.378;2022-07-29T13:07:35;32.62;44.50
69393;SHT31;56582;44.624;20.378;2022-07-29T13:10:18;32.55;45.33
69393;SHT31;56582;44.624;20.378;2022-07-29T13:15:30;33.12;44.51
69393;SHT31;56582;44.624;20.378;2022-07-29T13:17:56;33.43;43.33
69393;SHT31;56582;44.624;20.378;2022-07-29T13:20:27;33.50;43.18
69393;SHT31;56582;44.624;20.378;2022-07-29T13:22:54;33.73;43.92
69393;SHT31;56582;44.624;20.378;2022-07-29T13:25:38;33.93;42.99
69393;SHT31;56582;44.624;20.378;2022-07-29T13:28:05;33.78;44.23
69393;SHT31;56582;44.624;20.378;2022-07-29T13:30:31;34.07;42.14
69393;SHT31;56582;44.624;20.378;2022-07-29T13:32:56;34.09;41.35
69393;SHT31;56582;44.624;20.378;2022-07-29T13:35:22;34.38;42.82
69393;SHT31;56582;44.624;20.378;2022-07-29T13:37:47;34.57;41.96
69393;SHT31;56582;44.624;20.378;2022-07-29T13:40:13;34.66;41.67
69393;SHT31;56582;44.624;20.378;2022-07-29T13:42:39;34.35;41.67
69393;SHT31;56582;44.624;20.378;2022-07-29T13:45:05;34.38;41.41
69393;SHT31;56582;44.624;20.378;2022-07-29T13:47:31;34.11;41.05
69393;SHT31;56582;44.624;20.378;2022-07-29T13:50:02;34.07;42.39
69393;SHT31;56582;44.624;20.378;2022-07-29T13:52:27;33.67;42.65
69393;SHT31;56582;44.624;20.378;2022-07-29T13:54:53;33.86;43.51
69393;SHT31;56582;44.624;20.378;2022-07-29T13:57:19;33.30;43.20
69393;SHT31;56582;44.624;20.378;2022-07-29T13:59:44;33.51;44.35
69393;SHT31;56582;44.624;20.378;2022-07-29T14:02:11;33.42;42.89
69393;SHT31;56582;44.624;20.378;2022-07-29T14:04:37;33.70;42.92
69393;SHT31;56582;44.624;20.378;2022-07-29T14:07:03;33.34;43.33
69393;SHT31;56582;44.624;20.378;2022-07-29T14:09:28;33.50;43.38
69393;SHT31;56582;44.624;20.378;2022-07-29T14:11:54;33.71;42.97
69393;SHT31;56582;44.624;20.378;2022-07-29T14:14:19;33.64;42.50
69393;SHT31;56582;44.624;20.378;2022-07-29T14:16:45;33.51;42.68
69393;SHT31;56582;44.624;20.378;2022-07-29T14:19:11;33.78;43.02
69393;SHT31;56582;44.624;20.378;2022-07-29T14:21:38;34.09;43.50
69393;SHT31;56582;44.624;20.378;2022-07-29T14:24:04;33.47;42.22
69393;SHT31;56582;44.624;20.378;2022-07-29T14:26:29;33.60;42.11
69393;SHT31;56582;44.624;20.378;2022-07-29T14:28:55;33.19;43.08
69393;SHT31;56582;44.624;20.378;2022-07-29T14:31:20;33.50;42.46
69393;SHT31;56582;44.624;20.378;2022-07-29T14:33:46;33.42;43.23
69393;SHT31;56582;44.624;20.378;2022-07-29T14:36:12;33.49;42.82
69393;SHT31;56582;44.624;20.378;2022-07-29T14:38:37;33.45;42.99
69393;SHT31;56582;44.624;20.378;2022-07-29T14:41:04;33.19;43.43
69393;SHT31;56582;44.624;20.378;2022-07-29T14:43:29;32.82;43.43
69393;SHT31;56582;44.624;20.378;2022-07-29T14:45:55;32.74;44.18
69393;SHT31;56582;44.624;20.378;2022-07-29T14:48:20;32.98;43.36
69393;SHT31;56582;44.624;20.378;2022-07-29T14:50:46;32.92;43.65
69393;SHT31;56582;44.624;20.378;2022-07-29T14:53:11;33.37;42.79
69393;SHT31;56582;44.624;20.378;2022-07-29T14:55:38;33.36;42.72
69393;SHT31;56582;44.624;20.378;2022-07-29T14:58:04;33.26;41.64
69393;SHT31;56582;44.624;20.378;2022-07-29T15:00:30;33.01;43.88
69393;SHT31;56582;44.624;20.378;2022-07-29T15:02:58;32.98;43.60
69393;SHT31;56582;44.624;20.378;2022-07-29T15:05:24;32.99;43.56
69393;SHT31;56582;44.624;20.378;2022-07-29T15:07:50;32.65;44.37
69393;SHT31;56582;44.624;20.378;2022-07-29T15:10:15;32.55;44.28
69393;SHT31;56582;44.624;20.378;2022-07-29T15:12:41;32.10;44.99
69393;SHT31;56582;44.624;20.378;2022-07-29T15:15:06;31.90;44.81
69393;SHT31;56582;44.624;20.378;2022-07-29T15:17:33;31.61;45.21
69393;SHT31;56582;44.624;20.378;2022-07-29T15:19:58;31.62;45.24
69393;SHT31;56582;44.624;20.378;2022-07-29T15:22:24;31.83;45.22
69393;SHT31;56582;44.624;20.378;2022-07-29T15:24:50;31.98;44.14
69393;SHT31;56582;44.624;20.378;2022-07-29T15:27:15;32.21;43.74
69393;SHT31;56582;44.624;20.378;2022-07-29T15:29:41;32.17;43.97
69393;SHT31;56582;44.624;20.378;2022-07-29T15:32:07;32.47;43.58
69393;SHT31;56582;44.624;20.378;2022-07-29T15:34:33;32.67;42.66
69393;SHT31;56582;44.624;20.378;2022-07-29T15:36:58;32.58;43.35
69393;SHT31;56582;44.624;20.378;2022-07-29T15:39:24;32.89;42.74
69393;SHT31;56582;44.624;20.378;2022-07-29T15:41:50;32.78;43.01
69393;SHT31;56582;44.624;20.378;2022-07-29T15:44:16;32.50;43.63
69393;SHT31;56582;44.624;20.378;2022-07-29T15:46:41;32.64;44.04
69393;SHT31;56582;44.624;20.378;2022-07-29T15:49:25;32.47;42.64
69393;SHT31;56582;44.624;20.378;2022-07-29T15:51:59;32.27;42.69
69393;SHT31;56582;44.624;20.378;2022-07-29T15:54:26;32.47;44.14
69393;SHT31;56582;44.624;20.378;2022-07-29T15:56:51;32.70;42.79
69393;SHT31;56582;44.624;20.378;2022-07-29T15:59:17;32.75;42.60
69393;SHT31;56582;44.624;20.378;2022-07-29T16:01:43;32.71;42.15
69393;SHT31;56582;44.624;20.378;2022-07-29T16:04:08;32.94;41.60
69393;SHT31;56582;44.624;20.378;2022-07-29T16:06:34;32.81;43.12
69393;SHT31;56582;44.624;20.378;2022-07-29T16:08:59;32.48;43.17
69393;SHT31;56582;44.624;20.378;2022-07-29T16:11:25;32.47;42.90